Time;durP1;ratioP1;P1;durP2;ratioP2;P2;SDS_P1;SDS_P2;PMS_P1;PMS_P2;Temp;Humidity;BMP_temperature;BMP_pressure;BME280_temperature;BME280_humidity;BME280_pressure;Samples;Min_cycle;Max_cycle;Signal;HPM_P1;HPM_P2
2022/11/28 00:01:44;;;;;;;77.90;41.20;;;;;;;1.83;87.26;99657.71;86553;1277;22925;-71
2022/11/28 00:03:46;;;;;;;75.90;41.50;;;;;;;1.84;87.34;99652.70;86300;1286;99066;-74
2022/11/28 00:05:47;;;;;;;73.80;40.40;;;;;;;1.83;87.45;99647.84;86785;1290;24353;-71
2022/11/28 00:07:48;;;;;;;74.30;39.40;;;;;;;1.81;86.98;99645.59;86483;1284;22519;-72
2022/11/28 00:09:51;;;;;;;67.90;40.00;;;;;;;1.82;87.28;99646.45;86199;1287;99021;-71
2022/11/28 00:11:53;;;;;;;75.20;40.90;;;;;;;1.80;87.59;99641.80;86526;1284;22522;-73
2022/11/28 00:13:54;;;;;;;;;;;;;;;1.80;87.39;99639.02;86426;1284;22477;-71
2022/11/28 00:16:00;;;;;;;66.00;37.80;;;;;;;1.77;87.10;99641.10;86328;1290;85248;-72
2022/11/28 00:18:01;;;;;;;63.00;38.50;;;;;;;1.75;87.31;99639.20;86450;1284;22527;-71
2022/11/28 00:20:02;;;;;;;65.60;39.10;;;;;;;1.74;87.47;99641.64;86336;1294;24289;-71
2022/11/28 00:22:03;;;;;;;66.90;38.40;;;;;;;1.72;87.36;99645.95;86354;1287;97988;-71
2022/11/28 00:24:06;;;;;;;71.30;38.90;;;;;;;1.71;87.48;99646.48;86444;1280;24257;-71
2022/11/28 00:26:10;;;;;;;69.30;39.50;;;;;;;1.71;87.44;99643.70;86427;1283;22609;-72
2022/11/28 00:28:11;;;;;;;75.70;42.70;;;;;;;1.70;87.53;99649.95;86626;1284;99423;-72
2022/11/28 00:30:12;;;;;;;65.60;42.40;;;;;;;1.70;87.36;99651.34;86567;1291;22465;-71
2022/11/28 00:32:13;;;;;;;67.00;37.80;;;;;;;1.69;87.38;99648.73;86294;1287;22684;-70
2022/11/28 00:34:14;;;;;;;69.40;40.80;;;;;;;1.68;87.41;99653.24;86487;1285;99153;-72
2022/11/28 00:36:17;;;;;;;74.50;41.20;;;;;;;1.68;87.55;99650.65;86421;1294;24233;-71
2022/11/28 00:38:26;;;;;;;70.30;37.30;;;;;;;1.68;87.57;99643.89;86469;1284;22538;-71
2022/11/28 00:40:28;;;;;;;63.70;36.80;;;;;;;1.68;87.60;99649.25;86367;1283;99515;-72
2022/11/28 00:42:29;;;;;;;70.90;39.00;;;;;;;1.67;87.27;99649.60;86564;1294;22659;-71
2022/11/28 00:44:30;;;;;;;78.20;42.00;;;;;;;1.66;87.37;99650.65;86511;1284;22514;-71
2022/11/28 00:46:31;;;;;;;76.70;41.70;;;;;;;1.67;87.52;99647.35;86289;1294;99590;-73
2022/11/28 00:48:33;;;;;;;75.40;40.00;;;;;;;1.67;87.60;99649.08;86327;1287;22843;-75
2022/11/28 00:50:34;;;;;;;66.50;38.80;;;;;;;1.68;87.20;99650.81;86420;1285;22504;-73
2022/11/28 00:52:35;;;;;;;69.10;38.90;;;;;;;1.70;87.38;99655.13;86583;1285;99142;-72
2022/11/28 00:54:36;;;;;;;70.30;39.90;;;;;;;1.67;87.54;99644.59;86413;1284;22549;-73
2022/11/28 00:56:38;;;;;;;68.30;37.20;;;;;;;1.73;87.34;99651.68;86479;1285;23876;-72
2022/11/28 00:58:41;;;;;;;63.70;36.70;;;;;;;1.74;87.47;99652.71;86415;1283;97903;-69
2022/11/28 01:00:42;;;;;;;68.10;39.00;;;;;;;1.76;87.56;99653.05;86485;1287;24247;-72
2022/11/28 01:02:43;;;;;;;63.90;37.40;;;;;;;1.76;87.64;99648.55;86601;1284;22537;-70
2022/11/28 01:04:45;;;;;;;65.50;38.00;;;;;;;1.77;87.29;99640.56;86468;1294;99233;-71
2022/11/28 01:06:48;;;;;;;66.10;36.70;;;;;;;1.78;87.46;99639.70;86594;1284;24247;-71
2022/11/28 01:08:50;;;;;;;62.30;35.50;;;;;;;1.77;87.40;99635.55;86460;1281;22442;-71
2022/11/28 01:10:51;;;;;;;58.20;36.20;;;;;;;1.76;87.75;99632.09;86243;1287;97691;-71
2022/11/28 01:12:52;;;;;;;67.20;38.60;;;;;;;1.71;87.41;99623.09;86488;1283;24218;-71
2022/11/28 01:14:54;;;;;;;;;;;;;;;1.74;87.40;99629.66;86547;1285;25236;-71
2022/11/28 01:16:55;;;;;;;68.50;38.10;;;;;;;1.74;87.47;99628.64;86486;1289;84939;-73
2022/11/28 01:18:56;;;;;;;61.60;34.60;;;;;;;1.74;87.73;99624.30;86650;1277;24235;-73
2022/11/28 01:20:57;;;;;;;68.20;37.10;;;;;;;1.73;87.42;99623.44;86375;1284;98029;-74
2022/11/28 01:22:58;;;;;;;73.20;37.70;;;;;;;1.73;87.59;99618.77;86449;1284;22636;-71
2022/11/28 01:24:59;;;;;;;65.30;36.20;;;;;;;1.73;87.48;99615.82;86540;1285;22527;-71
2022/11/28 01:27:00;;;;;;;70.60;39.00;;;;;;;1.73;87.47;99614.25;86370;1284;100521;-72
2022/11/28 01:29:01;;;;;;;68.50;36.20;;;;;;;1.72;87.46;99608.89;86395;1286;22504;-71
2022/11/28 01:31:08;;;;;;;65.80;39.10;;;;;;;1.69;87.38;99606.29;86448;1287;22693;-73
2022/11/28 01:33:09;;;;;;;64.90;38.10;;;;;;;1.68;87.74;99599.19;86517;1291;98476;-70
2022/11/28 01:35:10;;;;;;;58.60;33.60;;;;;;;1.67;87.57;99596.94;86446;1285;22516;-71
2022/11/28 01:37:11;;;;;;;;;;;;;;;1.61;87.41;99591.41;86644;1276;22580;-71
2022/11/28 01:39:14;;;;;;;57.60;32.70;;;;;;;1.60;87.43;99591.07;86334;1290;84248;-70
2022/11/28 01:41:19;;;;;;;66.20;33.90;;;;;;;1.58;87.60;99594.69;86508;1289;22492;-71
2022/11/28 01:43:21;;;;;;;64.10;36.20;;;;;;;1.55;87.33;99592.63;86495;1280;22489;-70
2022/11/28 01:45:32;;;;;;;68.90;35.50;;;;;;;1.57;87.55;99592.64;86488;1277;98017;-72
2022/11/28 01:47:34;;;;;;;66.10;35.20;;;;;;;1.58;87.55;99585.00;86444;1283;26610;-71
2022/11/28 01:49:36;;;;;;;61.80;37.20;;;;;;;1.57;87.41;99579.65;86482;1283;22648;-71
2022/11/28 01:51:41;;;;;;;66.40;36.60;;;;;;;1.58;87.22;99576.00;86528;1285;98082;-71
2022/11/28 01:53:45;;;;;;;63.10;35.90;;;;;;;1.57;87.39;99569.59;86466;1283;23033;-71
2022/11/28 01:55:56;;;;;;;67.20;37.80;;;;;;;1.56;87.47;99564.75;86510;1285;25389;-71
2022/11/28 01:57:58;;;;;;;61.60;33.70;;;;;;;1.55;87.66;99563.02;86546;1284;99043;-70
2022/11/28 02:00:13;;;;;;;59.60;30.30;;;;;;;1.52;87.36;99561.80;86334;1289;22748;-72
2022/11/28 02:02:23;;;;;;;60.80;32.20;;;;;;;1.49;87.27;99564.58;86601;1283;24495;-71
2022/11/28 02:04:27;;;;;;;63.80;32.80;;;;;;;1.47;87.31;99564.94;86381;1283;97875;-71
2022/11/28 02:06:32;;;;;;;59.90;35.10;;;;;;;1.46;87.40;99556.45;86491;1277;25551;-72
2022/11/28 02:08:35;;;;;;;61.90;35.20;;;;;;;1.46;87.26;99555.23;86514;1282;22519;-73
2022/11/28 02:10:50;;;;;;;62.50;33.20;;;;;;;1.47;87.19;99551.42;85932;1287;287219;-72
2022/11/28 02:13:26;;;;;;;58.40;34.70;;;;;;;1.45;87.53;99548.48;86528;1285;22503;-72
2022/11/28 02:15:55;;;;;;;63.40;35.10;;;;;;;1.43;87.32;99544.86;86311;1279;99480;-70
2022/11/28 02:18:08;;;;;;;65.00;37.70;;;;;;;1.44;87.56;99545.38;86387;1283;24714;-73
2022/11/28 02:20:31;;;;;;;61.40;34.90;;;;;;;1.43;87.19;99548.33;86457;1280;25979;-72
2022/11/28 02:22:54;;;;;;;57.50;33.60;;;;;;;1.43;87.32;99550.05;86449;1280;98982;-72
2022/11/28 02:25:11;;;;;;;64.10;34.70;;;;;;;1.41;87.55;99547.45;86515;1283;22476;-71
2022/11/28 02:27:22;;;;;;;65.10;35.80;;;;;;;1.42;87.52;99549.01;86521;1280;98510;-71
2022/11/28 02:29:48;;;;;;;62.70;35.20;;;;;;;1.41;87.41;99547.45;86465;1285;24411;-71
2022/11/28 02:32:15;;;;;;;60.80;37.50;;;;;;;1.40;87.49;99543.99;86463;1284;22533;-71
2022/11/28 02:34:43;;;;;;;69.60;39.20;;;;;;;1.40;87.33;99542.79;86355;1287;98991;-75
2022/11/28 02:37:02;;;;;;;72.70;37.20;;;;;;;1.40;87.39;99539.50;86572;1284;22438;-73
2022/11/28 02:39:17;;;;;;;74.70;39.90;;;;;;;1.41;87.63;99538.11;86331;1280;99234;-69
2022/11/28 02:41:29;;;;;;;71.80;39.90;;;;;;;1.42;87.39;99542.42;86580;1285;22485;-70
2022/11/28 02:44:00;;;;;;;70.50;38.10;;;;;;;1.42;87.50;99542.77;86547;1289;24298;-73
2022/11/28 02:46:47;;;;;;;71.30;39.60;;;;;;;1.42;87.65;99540.52;86463;1280;98994;-75
2022/11/28 02:48:57;;;;;;;73.40;39.30;;;;;;;1.42;87.56;99537.58;86145;1297;23315;-75
2022/11/28 02:51:12;;;;;;;69.80;39.10;;;;;;;1.41;87.48;99538.80;86199;1286;22509;-71
2022/11/28 02:53:19;;;;;;;65.10;37.30;;;;;;;1.41;87.91;99534.64;85922;1292;23547;-70
2022/11/28 02:55:20;;;;;;;72.10;39.20;;;;;;;1.41;87.54;99531.17;85825;1298;22525;-71
2022/11/28 02:57:21;;;;;;;;;;;;;;;1.42;87.74;99525.27;85956;1283;98015;-72
2022/11/28 02:59:32;;;;;;;66.20;38.90;;;;;;;1.42;87.61;99526.16;86179;1290;22546;-70
2022/11/28 03:01:37;;;;;;;66.60;38.80;;;;;;;1.41;87.65;99525.11;86114;1286;22526;-72
2022/11/28 03:03:53;;;;;;;73.50;40.20;;;;;;;1.41;87.81;99525.45;86170;1289;99554;-70
2022/11/28 03:06:31;;;;;;;70.40;37.80;;;;;;;1.41;87.63;99528.05;86141;1287;22875;-71
2022/11/28 03:08:52;;;;;;;62.20;35.90;;;;;;;1.40;87.57;99524.08;86175;1286;23366;-72
2022/11/28 03:11:47;;;;;;;67.40;38.60;;;;;;;1.40;87.53;99516.30;85941;1297;98689;-71
2022/11/28 03:14:01;;;;;;;65.60;37.00;;;;;;;1.39;87.62;99512.83;85492;1295;22750;-70
2022/11/28 03:16:11;;;;;;;71.10;37.00;;;;;;;1.39;87.32;99513.02;85484;1295;100144;-71
2022/11/28 03:18:44;;;;;;;68.20;38.30;;;;;;;1.40;87.70;99514.21;85528;1292;23047;-71
2022/11/28 03:20:56;;;;;;;74.90;38.60;;;;;;;1.39;87.26;99511.45;85496;1291;22586;-71
2022/11/28 03:22:58;;;;;;;69.50;38.80;;;;;;;1.39;87.46;99511.45;85353;1296;99749;-73
2022/11/28 03:25:40;;;;;;;65.10;39.90;;;;;;;1.39;87.52;99504.17;85596;1295;23085;-70
2022/11/28 03:28:13;;;;;;;67.70;36.20;;;;;;;1.40;87.39;99506.59;85954;1296;97995;-71
2022/11/28 03:30:28;;;;;;;66.40;35.80;;;;;;;1.38;87.53;99510.75;86086;1291;22512;-71
2022/11/28 03:32:35;;;;;;;66.50;37.10;;;;;;;1.34;87.57;99510.42;85987;1305;22492;-72
2022/11/28 03:34:40;;;;;;;73.20;37.80;;;;;;;1.34;87.43;99507.13;86011;1286;99275;-70
2022/11/28 03:36:55;;;;;;;70.70;36.80;;;;;;;1.35;87.67;99501.06;85889;1292;22663;-69
2022/11/28 03:39:09;;;;;;;67.60;38.10;;;;;;;1.35;87.35;99498.64;85871;1292;22616;-71
2022/11/28 03:41:18;;;;;;;70.40;38.00;;;;;;;1.34;87.69;99497.95;85994;1296;22575;-71
2022/11/28 03:43:24;;;;;;;64.10;37.30;;;;;;;1.37;87.64;99502.61;86299;1288;22521;-71
2022/11/28 03:45:30;;;;;;;67.30;38.00;;;;;;;1.37;87.58;99503.13;85942;1294;99161;-72
2022/11/28 03:47:37;;;;;;;67.90;38.20;;;;;;;1.32;87.78;99494.32;86174;1297;25331;-71
2022/11/28 03:49:41;;;;;;;70.90;39.70;;;;;;;1.39;87.46;99498.29;86386;1281;22590;-70
2022/11/28 03:51:53;;;;;;;75.00;40.70;;;;;;;1.40;87.38;99497.94;86345;1283;97918;-72
2022/11/28 03:54:09;;;;;;;69.10;39.70;;;;;;;1.39;87.59;99496.05;86423;1283;22515;-71
2022/11/28 03:56:15;;;;;;;71.20;38.40;;;;;;;1.40;87.69;99494.64;86512;1280;22502;-71
2022/11/28 03:58:35;;;;;;;67.90;38.00;;;;;;;1.39;87.76;99494.30;86664;1291;99519;-72
2022/11/28 04:00:47;;;;;;;73.30;37.20;;;;;;;1.38;87.46;99492.91;86268;1300;22593;-71
2022/11/28 04:02:54;;;;;;;73.80;41.10;;;;;;;1.38;87.66;99491.18;86512;1283;22484;-71
2022/11/28 04:05:11;;;;;;;79.00;38.60;;;;;;;1.39;87.34;99490.15;86464;1280;98586;-70
2022/11/28 04:07:38;;;;;;;71.90;38.00;;;;;;;1.39;87.78;99489.98;86505;1285;22598;-73
2022/11/28 04:09:48;;;;;;;67.50;38.20;;;;;;;1.38;87.82;99485.12;86453;1289;99130;-72
2022/11/28 04:11:58;;;;;;;65.50;37.70;;;;;;;1.38;87.53;99490.67;86625;1283;22592;-71
2022/11/28 04:14:11;;;;;;;63.00;35.50;;;;;;;1.36;87.70;99490.67;86498;1283;25376;-71
2022/11/28 04:16:24;;;;;;;68.20;39.00;;;;;;;1.35;87.64;99492.76;86440;1289;99300;-70
2022/11/28 04:18:38;;;;;;;73.80;39.60;;;;;;;1.36;87.52;99490.16;86365;1285;22460;-70
2022/11/28 04:21:09;;;;;;;66.80;38.00;;;;;;;1.37;87.61;99485.99;86514;1280;26744;-71
2022/11/28 04:23:14;;;;;;;69.10;38.90;;;;;;;1.38;87.55;99488.59;86536;1284;24253;-72
2022/11/28 04:25:18;;;;;;;64.40;37.70;;;;;;;1.37;87.80;99487.54;86603;1283;22485;-70
2022/11/28 04:27:23;;;;;;;72.00;40.40;;;;;;;1.38;87.63;99486.85;86227;1286;98124;-71
2022/11/28 04:29:29;;;;;;;66.30;37.90;;;;;;;1.38;87.51;99486.69;86368;1288;22481;-70
2022/11/28 04:31:32;;;;;;;62.90;36.40;;;;;;;1.38;87.41;99485.65;86441;1301;22500;-71
2022/11/28 04:33:37;;;;;;;65.40;36.90;;;;;;;1.38;87.65;99483.05;86449;1283;99615;-70
2022/11/28 04:35:45;;;;;;;64.10;37.90;;;;;;;1.37;87.70;99485.99;86521;1283;22426;-71
2022/11/28 04:37:49;;;;;;;65.30;36.80;;;;;;;1.37;87.90;99480.79;86491;1283;22493;-71
2022/11/28 04:39:52;;;;;;;64.80;36.10;;;;;;;1.36;87.56;99474.05;86503;1280;99588;-71
2022/11/28 04:41:58;;;;;;;64.50;35.80;;;;;;;1.36;87.79;99475.09;86394;1290;22788;-70
2022/11/28 04:44:11;;;;;;;62.20;34.60;;;;;;;1.34;87.43;99473.37;86389;1286;22526;-72
2022/11/28 04:46:20;;;;;;;70.50;35.20;;;;;;;1.33;87.66;99473.55;86408;1283;99295;-70
2022/11/28 04:48:22;;;;;;;58.60;36.50;;;;;;;1.32;87.56;99470.77;86504;1287;22590;-71
2022/11/28 04:50:29;;;;;;;58.60;33.90;;;;;;;1.34;87.52;99471.80;86390;1300;22521;-71
2022/11/28 04:52:55;;;;;;;64.50;36.10;;;;;;;1.34;87.70;99471.45;86618;1285;98000;-72
2022/11/28 04:55:41;;;;;;;64.70;34.00;;;;;;;1.34;87.85;99471.64;86540;1284;22468;-72
2022/11/28 04:57:47;;;;;;;58.40;32.40;;;;;;;1.33;87.76;99468.34;86483;1287;98606;-70
2022/11/28 04:59:50;;;;;;;64.30;33.70;;;;;;;1.32;87.56;99467.14;86559;1283;24293;-70
2022/11/28 05:01:51;;;;;;;57.70;32.80;;;;;;;1.32;87.77;99466.44;86600;1283;22539;-70
2022/11/28 05:03:53;;;;;;;53.50;31.50;;;;;;;1.32;87.44;99466.63;86429;1307;98984;-71
2022/11/28 05:05:54;;;;;;;60.30;32.10;;;;;;;1.31;87.64;99470.09;86506;1284;22672;-71
2022/11/28 05:07:58;;;;;;;61.10;33.90;;;;;;;1.32;87.47;99468.00;86779;1279;22521;-72
2022/11/28 05:09:59;;;;;;;58.90;33.90;;;;;;;1.34;87.60;99470.42;87107;1308;100046;-71
2022/11/28 05:12:05;;;;;;;65.40;34.30;;;;;;;1.36;87.69;99471.11;87446;1280;22429;-71
2022/11/28 05:14:06;;;;;;;53.10;30.80;;;;;;;1.36;87.61;99468.34;87885;1292;22560;-70
2022/11/28 05:16:08;;;;;;;;;;;;;;;1.38;88.02;99471.11;87276;1292;97877;-73
2022/11/28 05:18:09;;;;;;;64.30;31.70;;;;;;;1.37;87.52;99470.07;86583;1283;22849;-71
2022/11/28 05:20:11;;;;;;;57.30;32.30;;;;;;;1.39;87.50;99472.14;86478;1283;22830;-75
2022/11/28 05:22:12;;;;;;;52.60;31.80;;;;;;;1.39;87.39;99469.04;86417;1280;98379;-74
2022/11/28 05:24:13;;;;;;;53.30;31.60;;;;;;;1.38;87.63;99466.42;86785;1281;22475;-71
2022/11/28 05:26:17;;;;;;;58.80;32.30;;;;;;;1.37;87.78;99466.42;86498;1283;22653;-70
2022/11/28 05:28:18;;;;;;;54.90;31.30;;;;;;;1.37;87.38;99467.30;86489;1283;98964;-72
2022/11/28 05:30:19;;;;;;;60.30;32.30;;;;;;;1.36;87.73;99468.34;86633;1283;22470;-72
2022/11/28 05:32:20;;;;;;;;;;;;;;;1.36;87.69;99468.69;86602;1290;22508;-70
2022/11/28 05:34:21;;;;;;;60.50;30.60;;;;;;;1.35;87.66;99471.80;86430;1286;85583;-71
2022/11/28 05:36:23;;;;;;;51.10;29.50;;;;;;;1.34;87.71;99469.73;86344;1286;24321;-71
2022/11/28 05:38:25;;;;;;;;;;;;;;;1.36;87.57;99470.42;86593;1283;24598;-70
2022/11/28 05:40:26;;;;;;;59.30;31.00;;;;;;;1.35;87.54;99473.02;86447;1292;85370;-71
2022/11/28 05:42:31;;;;;;;51.90;29.20;;;;;;;1.34;87.75;99475.45;86476;1281;22448;-71
2022/11/28 05:44:32;;;;;;;60.80;29.90;;;;;;;1.34;87.36;99471.30;86397;1283;22526;-71
2022/11/28 05:46:33;;;;;;;55.90;30.10;;;;;;;1.36;87.57;99468.69;86443;1283;99061;-71
2022/11/28 05:48:34;;;;;;;54.30;28.90;;;;;;;1.37;87.45;99471.79;86432;1283;25272;-70
2022/11/28 05:50:38;;;;;;;56.00;31.20;;;;;;;1.36;87.66;99473.70;86488;1284;23751;-72
2022/11/28 05:52:39;;;;;;;51.90;30.70;;;;;;;1.37;87.59;99473.19;86275;1286;99504;-72
2022/11/28 05:54:40;;;;;;;58.70;31.80;;;;;;;1.38;87.66;99472.49;86459;1290;23357;-72
2022/11/28 05:56:41;;;;;;;62.80;31.90;;;;;;;1.39;87.42;99470.94;86259;1283;24262;-71
2022/11/28 05:58:43;;;;;;;57.80;30.90;;;;;;;1.38;87.69;99469.02;86480;1283;101446;-71
2022/11/28 06:00:44;;;;;;;51.00;27.90;;;;;;;1.38;87.58;99466.08;86481;1290;22444;-71
2022/11/28 06:02:45;;;;;;;57.80;28.80;;;;;;;1.37;87.71;99465.73;86530;1283;22481;-71
2022/11/28 06:04:46;;;;;;;56.00;30.60;;;;;;;1.37;87.67;99465.38;86436;1283;100755;-73
2022/11/28 06:06:49;;;;;;;54.60;30.20;;;;;;;1.37;87.41;99464.69;86426;1293;23348;-72
2022/11/28 06:08:52;;;;;;;53.50;30.10;;;;;;;1.37;87.54;99461.94;86483;1280;22465;-72
2022/11/28 06:10:57;;;;;;;;;;;;;;;1.37;87.54;99466.27;86417;1284;99932;-73
2022/11/28 06:12:58;;;;;;;56.10;28.70;;;;;;;1.37;87.58;99471.61;86454;1284;25379;-71
2022/11/28 06:14:59;;;;;;;64.70;29.20;;;;;;;1.38;87.61;99467.48;86394;1285;24888;-72
2022/11/28 06:17:00;;;;;;;52.90;29.30;;;;;;;1.39;87.55;99466.27;86222;1288;99332;-71
2022/11/28 06:19:04;;;;;;;54.50;29.50;;;;;;;1.39;87.48;99467.64;86517;1285;22588;-71
2022/11/28 06:21:07;;;;;;;47.30;28.10;;;;;;;1.38;87.60;99464.52;86425;1287;22518;-71
2022/11/28 06:23:09;;;;;;;66.10;30.70;;;;;;;1.38;87.66;99465.39;86563;1286;98841;-71
2022/11/28 06:25:10;;;;;;;47.20;28.90;;;;;;;1.37;87.52;99465.39;86617;1283;22582;-70
2022/11/28 06:27:11;;;;;;;57.30;28.60;;;;;;;1.37;87.48;99467.47;86409;1283;25560;-72
2022/11/28 06:29:12;;;;;;;43.40;27.00;;;;;;;1.37;87.30;99469.55;86392;1275;26474;-71
2022/11/28 06:31:17;;;;;;;55.30;28.30;;;;;;;1.38;87.35;99468.34;86116;1287;23371;-72
2022/11/28 06:33:18;;;;;;;54.70;29.30;;;;;;;1.38;87.69;99471.10;86360;1283;99908;-73
2022/11/28 06:35:19;;;;;;;56.30;29.70;;;;;;;1.38;87.51;99469.38;86238;1285;22712;-72
2022/11/28 06:37:20;;;;;;;51.80;28.10;;;;;;;1.40;87.51;99469.55;86247;1293;23012;-72
2022/11/28 06:39:21;;;;;;;58.50;28.90;;;;;;;1.40;87.60;99471.62;86125;1283;98111;-72
2022/11/28 06:41:22;;;;;;;67.60;32.30;;;;;;;1.40;87.53;99471.96;86204;1279;22519;-72
2022/11/28 06:43:23;;;;;;;64.30;38.50;;;;;;;1.41;87.16;99470.74;86182;1286;22561;-73
2022/11/28 06:45:24;;;;;;;82.80;42.20;;;;;;;1.41;87.62;99469.52;86091;1287;98987;-71
2022/11/28 06:47:26;;;;;;;67.40;36.70;;;;;;;1.42;87.39;99465.55;86422;1277;22908;-73
2022/11/28 06:49:29;;;;;;;97.00;48.50;;;;;;;1.43;87.30;99466.07;86676;1286;26592;-74
2022/11/28 06:51:29;;;;;;;95.30;41.40;;;;;;;1.44;87.72;99466.25;86196;1293;100234;-72
2022/11/28 06:53:32;;;;;;;76.30;37.90;;;;;;;1.41;87.62;99462.79;86285;1283;22478;-72
2022/11/28 06:55:35;;;;;;;60.60;32.90;;;;;;;1.45;87.66;99470.39;86767;1280;22418;-72
2022/11/28 06:57:37;;;;;;;;;;;;;;;1.45;87.58;99466.92;86180;1284;99545;-72
2022/11/28 06:59:38;;;;;;;50.90;27.30;;;;;;;1.44;87.29;99466.77;86321;1283;25370;-72
2022/11/28 07:01:39;;;;;;;53.50;27.50;;;;;;;1.44;87.60;99465.38;86247;1284;24287;-73
2022/11/28 07:03:41;;;;;;;47.10;26.60;;;;;;;1.45;87.50;99469.86;85920;1287;99589;-72
2022/11/28 07:05:42;;;;;;;48.90;26.80;;;;;;;1.46;87.54;99469.70;86259;1284;26590;-71
2022/11/28 07:07:43;;;;;;;46.90;26.30;;;;;;;1.47;87.50;99469.52;86313;1283;22484;-72
2022/11/28 07:09:44;;;;;;;50.10;27.90;;;;;;;1.47;87.60;99466.07;86037;1286;98950;-73
2022/11/28 07:11:45;;;;;;;50.60;27.60;;;;;;;1.48;87.72;99465.88;86233;1281;22475;-73
2022/11/28 07:13:47;;;;;;;52.90;27.40;;;;;;;1.47;87.40;99468.13;86288;1277;22556;-73
2022/11/28 07:15:51;;;;;;;52.40;30.60;;;;;;;1.48;87.68;99466.56;86111;1287;98991;-72
2022/11/28 07:17:53;;;;;;;57.40;30.90;;;;;;;1.49;87.66;99463.09;86184;1283;23373;-72
2022/11/28 07:19:55;;;;;;;61.30;31.70;;;;;;;1.49;87.55;99459.98;86298;1283;25404;-72
2022/11/28 07:21:56;;;;;;;59.70;30.40;;;;;;;1.50;87.58;99459.13;86119;1283;99537;-73
2022/11/28 07:23:58;;;;;;;48.40;28.50;;;;;;;1.50;87.38;99461.19;85986;1286;25270;-72
2022/11/28 07:26:01;;;;;;;46.00;26.70;;;;;;;1.48;87.44;99457.73;86032;1286;22540;-72
2022/11/28 07:28:03;;;;;;;44.10;26.90;;;;;;;1.48;87.52;99461.38;86467;1285;99137;-72
2022/11/28 07:30:05;;;;;;;54.00;25.90;;;;;;;1.49;87.23;99461.37;86137;1277;24369;-73
2022/11/28 07:32:07;;;;;;;53.10;28.40;;;;;;;1.49;87.51;99458.59;86307;1278;23111;-74
2022/11/28 07:34:09;;;;;;;44.50;25.00;;;;;;;1.50;87.44;99456.70;86220;1283;99384;-71
2022/11/28 07:36:13;;;;;;;44.70;24.70;;;;;;;1.49;87.62;99456.17;86151;1285;22466;-72
2022/11/28 07:38:14;;;;;;;47.20;25.80;;;;;;;1.51;87.48;99454.10;86318;1277;22678;-73
2022/11/28 07:40:18;;;;;;;40.40;24.30;;;;;;;1.51;87.33;99451.14;86190;1284;98061;-73
2022/11/28 07:42:19;;;;;;;39.60;25.20;;;;;;;1.52;87.49;99453.74;86181;1280;24256;-72
2022/11/28 07:44:20;;;;;;;43.10;25.70;;;;;;;1.54;87.54;99457.37;86272;1276;22458;-74
2022/11/28 07:46:22;;;;;;;38.30;22.80;;;;;;;1.56;87.61;99457.19;86210;1280;98058;-73
2022/11/28 07:48:23;;;;;;;42.90;23.90;;;;;;;1.55;87.32;99454.08;86286;1284;22457;-72
2022/11/28 07:50:24;;;;;;;44.70;25.30;;;;;;;1.57;87.36;99453.21;85984;1279;22504;-72
2022/11/28 07:52:25;;;;;;;40.10;23.20;;;;;;;1.57;87.25;99451.11;86164;1283;99625;-73
2022/11/28 07:54:26;;;;;;;36.70;20.60;;;;;;;1.58;87.08;99451.12;86162;1284;23388;-73
2022/11/28 07:56:31;;;;;;;41.10;21.80;;;;;;;1.59;87.61;99453.20;86042;1280;23281;-71
2022/11/28 07:58:33;;;;;;;43.30;21.90;;;;;;;1.60;87.23;99453.89;86208;1283;99249;-73
2022/11/28 08:00:34;;;;;;;39.80;21.70;;;;;;;1.61;87.22;99454.23;86179;1287;22433;-72
2022/11/28 08:02:37;;;;;;;41.40;21.50;;;;;;;1.61;87.51;99455.63;86197;1286;22571;-73
2022/11/28 08:04:39;;;;;;;37.90;21.10;;;;;;;1.60;87.47;99454.06;86476;1283;99034;-73
2022/11/28 08:06:42;;;;;;;35.60;21.30;;;;;;;1.61;87.35;99453.53;86250;1286;22611;-76
2022/11/28 08:08:45;;;;;;;48.00;22.10;;;;;;;1.63;87.19;99455.08;86365;1280;25433;-72
2022/11/28 08:10:47;;;;;;;39.70;22.20;;;;;;;1.66;87.27;99453.70;86206;1284;99089;-72
2022/11/28 08:12:48;;;;;;;34.60;19.50;;;;;;;1.68;87.22;99454.02;86140;1280;25483;-72
2022/11/28 08:14:49;;;;;;;37.50;22.10;;;;;;;1.69;87.04;99448.14;86229;1277;22609;-74
2022/11/28 08:16:51;;;;;;;32.30;21.20;;;;;;;1.70;87.22;99449.16;86271;1281;99216;-74
2022/11/28 08:18:52;;;;;;;36.10;21.70;;;;;;;1.72;87.37;99447.42;86173;1277;22517;-73
2022/11/28 08:21:05;;;;;;;44.00;23.40;;;;;;;1.74;87.19;99447.07;86116;1283;22821;-72
2022/11/28 08:23:07;;;;;;;42.80;22.50;;;;;;;1.76;87.30;99452.60;86264;1284;99592;-73
2022/11/28 08:25:08;;;;;;;47.40;22.50;;;;;;;1.79;87.13;99451.55;86200;1283;22475;-71
2022/11/28 08:27:09;;;;;;;51.10;22.70;;;;;;;1.81;87.60;99453.97;86221;1287;25403;-72
2022/11/28 08:29:10;;;;;;;32.70;20.60;;;;;;;1.83;87.20;99454.13;86246;1284;97846;-72
2022/11/28 08:31:24;;;;;;;36.30;21.60;;;;;;;1.85;87.10;99451.52;86427;1277;22819;-73
2022/11/28 08:33:25;;;;;;;36.40;21.20;;;;;;;1.87;87.36;99452.90;86322;1284;99201;-73
2022/11/28 08:35:26;;;;;;;;;;;;;;;1.89;87.13;99450.11;86308;1292;22560;-73
2022/11/28 08:37:27;;;;;;;37.20;21.80;;;;;;;1.91;87.08;99448.20;86296;1277;22855;-72
2022/11/28 08:39:29;;;;;;;44.00;21.50;;;;;;;1.93;87.19;99447.67;86213;1277;98905;-72
2022/11/28 08:41:30;;;;;;;;;;;;;;;1.94;87.52;99445.74;86264;1280;23288;-72
2022/11/28 08:43:33;;;;;;;38.90;20.70;;;;;;;1.97;87.42;99443.48;86382;1283;25486;-72
2022/11/28 08:45:37;;;;;;;36.00;21.00;;;;;;;1.98;87.29;99442.08;86169;1280;99004;-74
2022/11/28 08:47:39;;;;;;;30.80;19.50;;;;;;;2.00;87.43;99437.39;86317;1301;23847;-72
2022/11/28 08:49:40;;;;;;;37.40;19.50;;;;;;;2.02;87.16;99439.64;86339;1283;22477;-73
2022/11/28 08:51:41;;;;;;;35.00;20.50;;;;;;;2.04;87.03;99442.57;86120;1294;98988;-73
2022/11/28 08:53:43;;;;;;;36.90;20.80;;;;;;;2.06;86.97;99438.93;86261;1283;22669;-73
2022/11/28 08:55:44;;;;;;;36.60;20.00;;;;;;;2.08;87.37;99435.79;86277;1281;22480;-72
2022/11/28 08:57:45;;;;;;;31.60;19.80;;;;;;;2.10;87.41;99437.86;86134;1283;99000;-72
2022/11/28 08:59:46;;;;;;;31.90;21.70;;;;;;;2.11;87.07;99433.52;86296;1277;23915;-72
2022/11/28 09:01:47;;;;;;;33.10;20.90;;;;;;;2.10;86.84;99430.23;86170;1280;22484;-72
2022/11/28 09:03:49;;;;;;;32.10;20.70;;;;;;;2.13;87.18;99431.94;86164;1278;98967;-71
2022/11/28 09:05:51;;;;;;;32.70;19.40;;;;;;;2.14;86.97;99426.38;86328;1283;25399;-71
2022/11/28 09:07:53;;;;;;;37.30;22.50;;;;;;;2.16;87.17;99421.86;86205;1284;24244;-71
2022/11/28 09:09:55;;;;;;;37.50;21.60;;;;;;;2.18;87.10;99417.52;86142;1285;99218;-72
2022/11/28 09:11:56;;;;;;;42.00;21.10;;;;;;;2.20;86.98;99414.38;86294;1284;24439;-73
2022/11/28 09:13:58;;;;;;;35.70;20.50;;;;;;;2.23;86.97;99410.73;86336;1283;22733;-74
2022/11/28 09:16:00;;;;;;;45.20;22.20;;;;;;;2.25;86.94;99408.11;86226;1279;99003;-72
2022/11/28 09:18:01;;;;;;;29.30;20.00;;;;;;;2.26;87.00;99410.88;86403;1279;22513;-71
2022/11/28 09:20:03;;;;;;;40.60;22.40;;;;;;;2.29;87.05;99405.83;86306;1287;22532;-73
2022/11/28 09:22:04;;;;;;;39.00;22.20;;;;;;;2.33;87.01;99405.63;86279;1284;99826;-74
2022/11/28 09:24:06;;;;;;;41.00;19.00;;;;;;;2.35;87.34;99405.09;86397;1291;25651;-72
2022/11/28 09:26:09;;;;;;;36.50;20.10;;;;;;;2.38;87.22;99397.95;86305;1279;25244;-72
2022/11/28 09:28:10;;;;;;;43.10;19.20;;;;;;;2.42;87.11;99395.48;86108;1287;99035;-73
2022/11/28 09:30:12;;;;;;;;;;;;;;;2.45;87.02;99392.85;86248;1279;22492;-72
2022/11/28 09:32:13;;;;;;;40.50;18.10;;;;;;;2.48;87.19;99392.15;86359;1276;24354;-72
2022/11/28 09:34:14;;;;;;;38.20;19.60;;;;;;;2.52;87.12;99391.77;86298;1276;98937;-72
2022/11/28 09:36:17;;;;;;;;;;;;;;;2.54;86.80;99392.77;86376;1283;22529;-72
2022/11/28 09:38:18;;;;;;;32.10;18.30;;;;;;;2.55;87.20;99390.16;86363;1284;22431;-72
2022/11/28 09:40:30;;;;;;;32.70;18.90;;;;;;;2.58;87.09;99387.73;86289;1277;99100;-73
2022/11/28 09:42:38;;;;;;;49.30;20.60;;;;;;;2.59;87.13;99381.47;86077;1287;22476;-72
2022/11/28 09:44:50;;;;;;;36.00;19.60;;;;;;;2.61;86.86;99379.02;86581;1283;22859;-72
2022/11/28 09:46:57;;;;;;;34.30;18.40;;;;;;;2.64;86.94;99376.05;86240;1284;99187;-73
2022/11/28 09:49:02;;;;;;;42.00;20.40;;;;;;;2.67;86.99;99375.14;86647;1281;22516;-74